sensor_id;sensor_type;location;lat;lon;timestamp;P1;durP1;ratioP1;P2;durP2;ratioP2
13244;SDS011;6689;53.400;12.486;2024-03-08T00:00:12;18.58;;;10.98;;
13244;SDS011;6689;53.400;12.486;2024-03-08T00:02:41;18.05;;;9.90;;
13244;SDS011;6689;53.400;12.486;2024-03-08T00:05:09;20.77;;;12.18;;
13244;SDS011;6689;53.400;12.486;2024-03-08T00:07:37;19.52;;;11.30;;
13244;SDS011;6689;53.400;12.486;2024-03-08T00:10:04;16.88;;;10.63;;
13244;SDS011;6689;53.400;12.486;2024-03-08T00:12:38;22.60;;;11.88;;
13244;SDS011;6689;53.400;12.486;2024-03-08T00:15:07;20.77;;;11.70;;
13244;SDS011;6689;53.400;12.486;2024-03-08T00:17:34;22.67;;;11.35;;
13244;SDS011;6689;53.400;12.486;2024-03-08T00:20:02;19.27;;;10.63;;
13244;SDS011;6689;53.400;12.486;2024-03-08T00:22:33;23.60;;;12.50;;
13244;SDS011;6689;53.400;12.486;2024-03-08T00:25:02;17.73;;;10.75;;
13244;SDS011;6689;53.400;12.486;2024-03-08T00:27:31;25.10;;;11.55;;
13244;SDS011;6689;53.400;12.486;2024-03-08T00:30:00;18.00;;;10.00;;
13244;SDS011;6689;53.400;12.486;2024-03-08T00:32:27;18.52;;;10.23;;
13244;SDS011;6689;53.400;12.486;2024-03-08T00:34:54;17.88;;;10.15;;
13244;SDS011;6689;53.400;12.486;2024-03-08T00:37:21;16.58;;;10.57;;
13244;SDS011;6689;53.400;12.486;2024-03-08T00:39:50;22.92;;;10.27;;
13244;SDS011;6689;53.400;12.486;2024-03-08T00:42:18;21.05;;;10.63;;
13244;SDS011;6689;53.400;12.486;2024-03-08T00:44:45;20.83;;;11.00;;
13244;SDS011;6689;53.400;12.486;2024-03-08T00:47:17;18.20;;;11.07;;
13244;SDS011;6689;53.400;12.486;2024-03-08T00:49:45;21.25;;;11.05;;
13244;SDS011;6689;53.400;12.486;2024-03-08T00:52:12;21.42;;;11.20;;
13244;SDS011;6689;53.400;12.486;2024-03-08T00:54:39;23.25;;;12.45;;
13244;SDS011;6689;53.400;12.486;2024-03-08T00:57:08;22.50;;;10.68;;
13244;SDS011;6689;53.400;12.486;2024-03-08T00:59:37;24.77;;;13.07;;
13244;SDS011;6689;53.400;12.486;2024-03-08T01:02:05;19.17;;;10.35;;
13244;SDS011;6689;53.400;12.486;2024-03-08T01:04:35;23.38;;;12.00;;
13244;SDS011;6689;53.400;12.486;2024-03-08T01:07:02;21.75;;;12.15;;
13244;SDS011;6689;53.400;12.486;2024-03-08T01:09:30;23.67;;;11.85;;
13244;SDS011;6689;53.400;12.486;2024-03-08T01:11:57;22.23;;;10.88;;
13244;SDS011;6689;53.400;12.486;2024-03-08T01:14:24;25.48;;;13.82;;
13244;SDS011;6689;53.400;12.486;2024-03-08T01:16:51;20.05;;;10.82;;
13244;SDS011;6689;53.400;12.486;2024-03-08T01:19:20;25.48;;;13.50;;
13244;SDS011;6689;53.400;12.486;2024-03-08T01:21:50;18.98;;;11.43;;
13244;SDS011;6689;53.400;12.486;2024-03-08T01:24:17;19.95;;;10.02;;
13244;SDS011;6689;53.400;12.486;2024-03-08T01:26:45;17.38;;;10.40;;
13244;SDS011;6689;53.400;12.486;2024-03-08T01:29:12;21.75;;;10.95;;
13244;SDS011;6689;53.400;12.486;2024-03-08T01:31:40;19.23;;;10.32;;
13244;SDS011;6689;53.400;12.486;2024-03-08T01:34:07;19.48;;;10.13;;
13244;SDS011;6689;53.400;12.486;2024-03-08T01:36:34;20.00;;;10.45;;
13244;SDS011;6689;53.400;12.486;2024-03-08T01:39:04;21.15;;;11.30;;
13244;SDS011;6689;53.400;12.486;2024-03-08T01:41:33;21.75;;;11.52;;
13244;SDS011;6689;53.400;12.486;2024-03-08T01:44:01;21.92;;;11.00;;
13244;SDS011;6689;53.400;12.486;2024-03-08T01:46:28;16.55;;;9.82;;
13244;SDS011;6689;53.400;12.486;2024-03-08T01:48:57;15.85;;;9.57;;
13244;SDS011;6689;53.400;12.486;2024-03-08T01:51:25;19.48;;;9.55;;
13244;SDS011;6689;53.400;12.486;2024-03-08T01:53:53;21.08;;;11.07;;
13244;SDS011;6689;53.400;12.486;2024-03-08T01:56:24;17.88;;;10.15;;
13244;SDS011;6689;53.400;12.486;2024-03-08T01:58:52;18.30;;;10.07;;
13244;SDS011;6689;53.400;12.486;2024-03-08T02:01:20;18.33;;;9.65;;
13244;SDS011;6689;53.400;12.486;2024-03-08T02:03:49;16.67;;;9.93;;
13244;SDS011;6689;53.400;12.486;2024-03-08T02:06:16;18.50;;;10.43;;
13244;SDS011;6689;53.400;12.486;2024-03-08T02:08:43;18.52;;;11.32;;
13244;SDS011;6689;53.400;12.486;2024-03-08T02:11:11;16.10;;;10.07;;
13244;SDS011;6689;53.400;12.486;2024-03-08T02:13:41;19.60;;;10.45;;
13244;SDS011;6689;53.400;12.486;2024-03-08T02:16:08;19.30;;;10.63;;
13244;SDS011;6689;53.400;12.486;2024-03-08T02:18:36;23.55;;;10.88;;
13244;SDS011;6689;53.400;12.486;2024-03-08T02:21:06;21.15;;;9.57;;
13244;SDS011;6689;53.400;12.486;2024-03-08T02:23:34;16.30;;;9.10;;
13244;SDS011;6689;53.400;12.486;2024-03-08T02:26:02;16.55;;;9.95;;
13244;SDS011;6689;53.400;12.486;2024-03-08T02:28:30;21.40;;;10.13;;
13244;SDS011;6689;53.400;12.486;2024-03-08T02:30:58;17.33;;;9.32;;
13244;SDS011;6689;53.400;12.486;2024-03-08T02:33:26;18.70;;;10.05;;
13244;SDS011;6689;53.400;12.486;2024-03-08T02:35:54;19.52;;;9.82;;
13244;SDS011;6689;53.400;12.486;2024-03-08T02:38:24;19.88;;;10.13;;
13244;SDS011;6689;53.400;12.486;2024-03-08T02:40:52;16.75;;;9.55;;
13244;SDS011;6689;53.400;12.486;2024-03-08T02:43:20;18.35;;;9.80;;
13244;SDS011;6689;53.400;12.486;2024-03-08T02:45:49;18.00;;;11.32;;
13244;SDS011;6689;53.400;12.486;2024-03-08T02:48:18;16.33;;;9.55;;
13244;SDS011;6689;53.400;12.486;2024-03-08T02:50:46;20.77;;;10.05;;
13244;SDS011;6689;53.400;12.486;2024-03-08T02:53:16;22.40;;;10.05;;
13244;SDS011;6689;53.400;12.486;2024-03-08T02:55:46;23.70;;;9.85;;
13244;SDS011;6689;53.400;12.486;2024-03-08T02:58:13;20.08;;;10.20;;
13244;SDS011;6689;53.400;12.486;2024-03-08T03:00:40;18.80;;;10.73;;
13244;SDS011;6689;53.400;12.486;2024-03-08T03:03:09;22.67;;;11.15;;
13244;SDS011;6689;53.400;12.486;2024-03-08T03:05:37;17.95;;;10.88;;
13244;SDS011;6689;53.400;12.486;2024-03-08T03:08:06;16.58;;;10.13;;
13244;SDS011;6689;53.400;12.486;2024-03-08T03:10:34;19.70;;;10.82;;
13244;SDS011;6689;53.400;12.486;2024-03-08T03:13:05;20.95;;;11.63;;
13244;SDS011;6689;53.400;12.486;2024-03-08T03:15:33;21.95;;;10.65;;
13244;SDS011;6689;53.400;12.486;2024-03-08T03:18:01;26.08;;;12.88;;
13244;SDS011;6689;53.400;12.486;2024-03-08T03:20:29;24.85;;;12.63;;
13244;SDS011;6689;53.400;12.486;2024-03-08T03:23:02;19.75;;;10.73;;
13244;SDS011;6689;53.400;12.486;2024-03-08T03:25:30;17.42;;;10.00;;
13244;SDS011;6689;53.400;12.486;2024-03-08T03:28:00;20.95;;;11.63;;
13244;SDS011;6689;53.400;12.486;2024-03-08T03:30:29;21.20;;;11.52;;
13244;SDS011;6689;53.400;12.486;2024-03-08T03:32:59;22.10;;;11.43;;
13244;SDS011;6689;53.400;12.486;2024-03-08T03:35:27;19.20;;;10.25;;
13244;SDS011;6689;53.400;12.486;2024-03-08T03:37:55;20.27;;;10.80;;
13244;SDS011;6689;53.400;12.486;2024-03-08T03:40:36;18.77;;;10.00;;
13244;SDS011;6689;53.400;12.486;2024-03-08T03:43:04;21.13;;;10.95;;
13244;SDS011;6689;53.400;12.486;2024-03-08T03:45:32;17.88;;;11.45;;
13244;SDS011;6689;53.400;12.486;2024-03-08T03:48:00;20.63;;;10.68;;
13244;SDS011;6689;53.400;12.486;2024-03-08T03:50:28;18.88;;;11.00;;
13244;SDS011;6689;53.400;12.486;2024-03-08T03:52:56;18.70;;;11.48;;
13244;SDS011;6689;53.400;12.486;2024-03-08T03:55:24;17.85;;;10.25;;
13244;SDS011;6689;53.400;12.486;2024-03-08T03:57:52;17.63;;;10.80;;
13244;SDS011;6689;53.400;12.486;2024-03-08T04:00:20;19.23;;;11.60;;
13244;SDS011;6689;53.400;12.486;2024-03-08T04:02:49;16.33;;;10.02;;
13244;SDS011;6689;53.400;12.486;2024-03-08T04:05:16;18.40;;;11.65;;
13244;SDS011;6689;53.400;12.486;2024-03-08T04:07:43;15.93;;;10.40;;
13244;SDS011;6689;53.400;12.486;2024-03-08T04:10:11;18.52;;;10.30;;
13244;SDS011;6689;53.400;12.486;2024-03-08T04:12:38;15.23;;;9.63;;
13244;SDS011;6689;53.400;12.486;2024-03-08T04:15:06;13.55;;;8.98;;
13244;SDS011;6689;53.400;12.486;2024-03-08T04:17:36;15.70;;;10.00;;
13244;SDS011;6689;53.400;12.486;2024-03-08T04:20:05;13.18;;;9.52;;
13244;SDS011;6689;53.400;12.486;2024-03-08T04:22:35;13.55;;;8.80;;
13244;SDS011;6689;53.400;12.486;2024-03-08T04:25:02;16.48;;;8.77;;
13244;SDS011;6689;53.400;12.486;2024-03-08T04:27:31;23.13;;;10.93;;
13244;SDS011;6689;53.400;12.486;2024-03-08T04:29:59;24.08;;;12.40;;
13244;SDS011;6689;53.400;12.486;2024-03-08T04:32:27;22.90;;;12.50;;
13244;SDS011;6689;53.400;12.486;2024-03-08T04:34:55;22.83;;;12.10;;
13244;SDS011;6689;53.400;12.486;2024-03-08T04:37:24;17.80;;;10.43;;
13244;SDS011;6689;53.400;12.486;2024-03-08T04:39:51;14.85;;;10.10;;
13244;SDS011;6689;53.400;12.486;2024-03-08T04:42:19;17.10;;;10.35;;
13244;SDS011;6689;53.400;12.486;2024-03-08T04:44:46;17.80;;;11.00;;
13244;SDS011;6689;53.400;12.486;2024-03-08T04:47:14;21.20;;;11.25;;
13244;SDS011;6689;53.400;12.486;2024-03-08T04:49:43;23.05;;;11.18;;
13244;SDS011;6689;53.400;12.486;2024-03-08T04:52:10;21.35;;;12.25;;
13244;SDS011;6689;53.400;12.486;2024-03-08T04:54:39;22.13;;;11.93;;
13244;SDS011;6689;53.400;12.486;2024-03-08T04:57:06;24.33;;;12.32;;
13244;SDS011;6689;53.400;12.486;2024-03-08T04:59:33;22.75;;;12.82;;
13244;SDS011;6689;53.400;12.486;2024-03-08T05:02:01;25.60;;;14.30;;
13244;SDS011;6689;53.400;12.486;2024-03-08T05:04:28;26.63;;;15.13;;
13244;SDS011;6689;53.400;12.486;2024-03-08T05:06:55;25.88;;;14.50;;
13244;SDS011;6689;53.400;12.486;2024-03-08T05:09:26;26.77;;;14.35;;
13244;SDS011;6689;53.400;12.486;2024-03-08T05:11:55;28.45;;;14.68;;
13244;SDS011;6689;53.400;12.486;2024-03-08T05:14:23;30.52;;;13.98;;
13244;SDS011;6689;53.400;12.486;2024-03-08T05:16:51;27.38;;;14.90;;
13244;SDS011;6689;53.400;12.486;2024-03-08T05:19:18;29.95;;;16.52;;
13244;SDS011;6689;53.400;12.486;2024-03-08T05:21:47;28.30;;;15.65;;
13244;SDS011;6689;53.400;12.486;2024-03-08T05:24:15;31.88;;;14.70;;
13244;SDS011;6689;53.400;12.486;2024-03-08T05:26:43;33.92;;;15.82;;
13244;SDS011;6689;53.400;12.486;2024-03-08T05:29:14;29.88;;;15.38;;
13244;SDS011;6689;53.400;12.486;2024-03-08T05:31:45;27.45;;;14.02;;
13244;SDS011;6689;53.400;12.486;2024-03-08T05:34:15;28.55;;;14.40;;
13244;SDS011;6689;53.400;12.486;2024-03-08T05:36:44;24.52;;;13.80;;
13244;SDS011;6689;53.400;12.486;2024-03-08T05:39:12;22.55;;;13.70;;
13244;SDS011;6689;53.400;12.486;2024-03-08T05:41:40;22.35;;;12.15;;
13244;SDS011;6689;53.400;12.486;2024-03-08T05:44:08;21.23;;;12.23;;
13244;SDS011;6689;53.400;12.486;2024-03-08T05:46:38;21.73;;;12.57;;
13244;SDS011;6689;53.400;12.486;2024-03-08T05:49:08;20.50;;;12.05;;
13244;SDS011;6689;53.400;12.486;2024-03-08T05:51:37;22.45;;;12.50;;
13244;SDS011;6689;53.400;12.486;2024-03-08T05:54:05;24.25;;;13.45;;
13244;SDS011;6689;53.400;12.486;2024-03-08T05:56:35;25.20;;;12.55;;
13244;SDS011;6689;53.400;12.486;2024-03-08T05:59:02;22.13;;;12.75;;
13244;SDS011;6689;53.400;12.486;2024-03-08T06:01:30;21.80;;;13.15;;
13244;SDS011;6689;53.400;12.486;2024-03-08T06:03:59;20.20;;;11.20;;
13244;SDS011;6689;53.400;12.486;2024-03-08T06:06:27;21.55;;;12.75;;
13244;SDS011;6689;53.400;12.486;2024-03-08T06:08:54;21.67;;;12.90;;
13244;SDS011;6689;53.400;12.486;2024-03-08T06:11:23;18.75;;;12.82;;
13244;SDS011;6689;53.400;12.486;2024-03-08T06:13:55;25.35;;;13.95;;
13244;SDS011;6689;53.400;12.486;2024-03-08T06:16:27;26.85;;;14.02;;
13244;SDS011;6689;53.400;12.486;2024-03-08T06:18:55;23.38;;;11.98;;
13244;SDS011;6689;53.400;12.486;2024-03-08T06:21:24;24.85;;;14.25;;
13244;SDS011;6689;53.400;12.486;2024-03-08T06:23:53;22.50;;;14.68;;
13244;SDS011;6689;53.400;12.486;2024-03-08T06:26:22;24.95;;;14.48;;
13244;SDS011;6689;53.400;12.486;2024-03-08T06:28:53;24.15;;;15.02;;
13244;SDS011;6689;53.400;12.486;2024-03-08T06:31:23;26.00;;;14.77;;
13244;SDS011;6689;53.400;12.486;2024-03-08T06:33:51;23.17;;;13.60;;
13244;SDS011;6689;53.400;12.486;2024-03-08T06:36:19;22.80;;;14.25;;
13244;SDS011;6689;53.400;12.486;2024-03-08T06:38:50;24.70;;;14.88;;
13244;SDS011;6689;53.400;12.486;2024-03-08T06:41:17;27.05;;;14.80;;
13244;SDS011;6689;53.400;12.486;2024-03-08T06:43:45;26.60;;;14.93;;
13244;SDS011;6689;53.400;12.486;2024-03-08T06:46:16;29.25;;;15.77;;
13244;SDS011;6689;53.400;12.486;2024-03-08T06:48:45;25.95;;;14.77;;
13244;SDS011;6689;53.400;12.486;2024-03-08T06:51:14;29.67;;;16.35;;
13244;SDS011;6689;53.400;12.486;2024-03-08T06:53:42;29.83;;;15.93;;
13244;SDS011;6689;53.400;12.486;2024-03-08T06:56:11;32.72;;;16.23;;
13244;SDS011;6689;53.400;12.486;2024-03-08T06:58:40;31.55;;;17.38;;
13244;SDS011;6689;53.400;12.486;2024-03-08T07:01:09;29.25;;;15.48;;
13244;SDS011;6689;53.400;12.486;2024-03-08T07:03:39;34.42;;;17.30;;
13244;SDS011;6689;53.400;12.486;2024-03-08T07:06:09;36.55;;;16.83;;
13244;SDS011;6689;53.400;12.486;2024-03-08T07:08:39;37.28;;;17.05;;
13244;SDS011;6689;53.400;12.486;2024-03-08T07:11:07;32.20;;;17.48;;
13244;SDS011;6689;53.400;12.486;2024-03-08T07:13:38;39.15;;;19.17;;
13244;SDS011;6689;53.400;12.486;2024-03-08T07:16:07;36.92;;;18.17;;
13244;SDS011;6689;53.400;12.486;2024-03-08T07:18:35;33.35;;;18.00;;
13244;SDS011;6689;53.400;12.486;2024-03-08T07:21:05;39.70;;;20.17;;
13244;SDS011;6689;53.400;12.486;2024-03-08T07:23:32;37.45;;;19.67;;
13244;SDS011;6689;53.400;12.486;2024-03-08T07:26:29;33.45;;;17.48;;
13244;SDS011;6689;53.400;12.486;2024-03-08T07:28:58;39.90;;;18.52;;
13244;SDS011;6689;53.400;12.486;2024-03-08T07:31:25;39.53;;;20.25;;
13244;SDS011;6689;53.400;12.486;2024-03-08T07:34:03;39.67;;;20.08;;
13244;SDS011;6689;53.400;12.486;2024-03-08T07:36:32;36.38;;;19.60;;
13244;SDS011;6689;53.400;12.486;2024-03-08T07:39:00;39.95;;;19.90;;
13244;SDS011;6689;53.400;12.486;2024-03-08T07:41:27;36.97;;;19.65;;
13244;SDS011;6689;53.400;12.486;2024-03-08T07:43:55;38.83;;;20.23;;
13244;SDS011;6689;53.400;12.486;2024-03-08T07:46:24;37.22;;;19.55;;
13244;SDS011;6689;53.400;12.486;2024-03-08T07:48:51;33.05;;;19.13;;
13244;SDS011;6689;53.400;12.486;2024-03-08T07:51:19;39.25;;;20.70;;
13244;SDS011;6689;53.400;12.486;2024-03-08T07:53:46;36.50;;;20.85;;
13244;SDS011;6689;53.400;12.486;2024-03-08T07:56:14;41.20;;;21.60;;
13244;SDS011;6689;53.400;12.486;2024-03-08T07:58:43;35.47;;;20.15;;
13244;SDS011;6689;53.400;12.486;2024-03-08T08:01:15;38.47;;;23.17;;
13244;SDS011;6689;53.400;12.486;2024-03-08T08:03:53;40.33;;;23.02;;
13244;SDS011;6689;53.400;12.486;2024-03-08T08:06:21;38.33;;;21.92;;
13244;SDS011;6689;53.400;12.486;2024-03-08T08:08:49;38.25;;;20.98;;
13244;SDS011;6689;53.400;12.486;2024-03-08T08:11:16;34.60;;;20.65;;
13244;SDS011;6689;53.400;12.486;2024-03-08T08:13:43;35.90;;;20.83;;
13244;SDS011;6689;53.400;12.486;2024-03-08T08:16:11;33.60;;;18.25;;
13244;SDS011;6689;53.400;12.486;2024-03-08T08:18:38;29.00;;;19.08;;
13244;SDS011;6689;53.400;12.486;2024-03-08T08:21:07;33.65;;;22.05;;
13244;SDS011;6689;53.400;12.486;2024-03-08T08:23:36;31.60;;;18.50;;
13244;SDS011;6689;53.400;12.486;2024-03-08T08:26:03;28.35;;;18.40;;
13244;SDS011;6689;53.400;12.486;2024-03-08T08:28:33;34.33;;;20.13;;
13244;SDS011;6689;53.400;12.486;2024-03-08T08:31:00;28.42;;;18.25;;
13244;SDS011;6689;53.400;12.486;2024-03-08T08:33:29;31.90;;;18.20;;
13244;SDS011;6689;53.400;12.486;2024-03-08T08:35:56;26.15;;;16.85;;
13244;SDS011;6689;53.400;12.486;2024-03-08T08:38:25;29.95;;;18.08;;
13244;SDS011;6689;53.400;12.486;2024-03-08T08:40:52;28.00;;;18.20;;
13244;SDS011;6689;53.400;12.486;2024-03-08T08:43:20;29.55;;;20.33;;
13244;SDS011;6689;53.400;12.486;2024-03-08T08:45:49;28.20;;;18.75;;
13244;SDS011;6689;53.400;12.486;2024-03-08T08:48:19;30.13;;;19.13;;
13244;SDS011;6689;53.400;12.486;2024-03-08T08:50:47;32.08;;;18.60;;
13244;SDS011;6689;53.400;12.486;2024-03-08T08:53:15;31.08;;;19.02;;
13244;SDS011;6689;53.400;12.486;2024-03-08T08:55:45;28.17;;;18.75;;
13244;SDS011;6689;53.400;12.486;2024-03-08T08:58:12;28.77;;;19.48;;
13244;SDS011;6689;53.400;12.486;2024-03-08T09:00:40;30.90;;;18.17;;
13244;SDS011;6689;53.400;12.486;2024-03-08T09:03:07;30.55;;;18.65;;
13244;SDS011;6689;53.400;12.486;2024-03-08T09:05:34;28.92;;;19.08;;
13244;SDS011;6689;53.400;12.486;2024-03-08T09:08:02;34.28;;;22.25;;
13244;SDS011;6689;53.400;12.486;2024-03-08T09:10:30;30.17;;;20.25;;
13244;SDS011;6689;53.400;12.486;2024-03-08T09:12:58;29.52;;;17.83;;
13244;SDS011;6689;53.400;12.486;2024-03-08T09:15:29;28.75;;;18.85;;
13244;SDS011;6689;53.400;12.486;2024-03-08T09:17:56;30.38;;;18.05;;
13244;SDS011;6689;53.400;12.486;2024-03-08T09:20:24;27.13;;;18.08;;
13244;SDS011;6689;53.400;12.486;2024-03-08T09:22:52;30.15;;;17.38;;
13244;SDS011;6689;53.400;12.486;2024-03-08T09:25:20;29.33;;;18.30;;
13244;SDS011;6689;53.400;12.486;2024-03-08T09:27:47;27.27;;;17.73;;
13244;SDS011;6689;53.400;12.486;2024-03-08T09:30:16;27.30;;;18.27;;
13244;SDS011;6689;53.400;12.486;2024-03-08T09:32:45;25.75;;;16.10;;
13244;SDS011;6689;53.400;12.486;2024-03-08T09:35:12;23.35;;;15.82;;
13244;SDS011;6689;53.400;12.486;2024-03-08T09:37:40;27.13;;;17.65;;
13244;SDS011;6689;53.400;12.486;2024-03-08T09:40:08;30.70;;;17.35;;
13244;SDS011;6689;53.400;12.486;2024-03-08T09:42:35;29.75;;;18.73;;
13244;SDS011;6689;53.400;12.486;2024-03-08T09:45:04;26.52;;;15.65;;
13244;SDS011;6689;53.400;12.486;2024-03-08T09:47:38;28.85;;;18.30;;
13244;SDS011;6689;53.400;12.486;2024-03-08T09:50:07;30.42;;;17.25;;
13244;SDS011;6689;53.400;12.486;2024-03-08T09:52:37;30.70;;;21.52;;
13244;SDS011;6689;53.400;12.486;2024-03-08T09:55:05;29.95;;;22.02;;
13244;SDS011;6689;53.400;12.486;2024-03-08T09:57:33;25.60;;;15.60;;
13244;SDS011;6689;53.400;12.486;2024-03-08T10:00:03;24.02;;;15.65;;
13244;SDS011;6689;53.400;12.486;2024-03-08T10:02:46;31.48;;;18.95;;
13244;SDS011;6689;53.400;12.486;2024-03-08T10:05:13;34.13;;;19.05;;
13244;SDS011;6689;53.400;12.486;2024-03-08T10:07:41;26.42;;;16.50;;
13244;SDS011;6689;53.400;12.486;2024-03-08T10:10:08;26.98;;;16.42;;
13244;SDS011;6689;53.400;12.486;2024-03-08T10:12:37;30.23;;;15.77;;
13244;SDS011;6689;53.400;12.486;2024-03-08T10:15:05;26.35;;;17.35;;
13244;SDS011;6689;53.400;12.486;2024-03-08T10:17:34;26.92;;;16.30;;
13244;SDS011;6689;53.400;12.486;2024-03-08T10:20:03;23.60;;;15.93;;
13244;SDS011;6689;53.400;12.486;2024-03-08T10:22:40;23.42;;;16.15;;
13244;SDS011;6689;53.400;12.486;2024-03-08T10:25:08;31.48;;;20.30;;
13244;SDS011;6689;53.400;12.486;2024-03-08T10:27:37;45.13;;;31.58;;
13244;SDS011;6689;53.400;12.486;2024-03-08T10:30:06;42.10;;;28.48;;
13244;SDS011;6689;53.400;12.486;2024-03-08T10:32:40;31.17;;;21.33;;
13244;SDS011;6689;53.400;12.486;2024-03-08T10:35:10;29.17;;;19.13;;
13244;SDS011;6689;53.400;12.486;2024-03-08T10:37:40;26.38;;;15.18;;
13244;SDS011;6689;53.400;12.486;2024-03-08T10:40:16;32.37;;;16.30;;
13244;SDS011;6689;53.400;12.486;2024-03-08T10:42:48;27.52;;;17.60;;
13244;SDS011;6689;53.400;12.486;2024-03-08T10:45:22;26.38;;;16.52;;
13244;SDS011;6689;53.400;12.486;2024-03-08T10:48:01;23.77;;;15.13;;
13244;SDS011;6689;53.400;12.486;2024-03-08T10:50:54;29.17;;;16.13;;
13244;SDS011;6689;53.400;12.486;2024-03-08T10:53:23;27.85;;;16.77;;
13244;SDS011;6689;53.400;12.486;2024-03-08T10:55:53;29.23;;;15.90;;
13244;SDS011;6689;53.400;12.486;2024-03-08T10:58:21;29.27;;;17.15;;
13244;SDS011;6689;53.400;12.486;2024-03-08T11:00:52;22.60;;;14.38;;
13244;SDS011;6689;53.400;12.486;2024-03-08T11:03:43;23.33;;;15.98;;
13244;SDS011;6689;53.400;12.486;2024-03-08T11:06:15;21.85;;;14.98;;
13244;SDS011;6689;53.400;12.486;2024-03-08T11:08:46;23.52;;;12.95;;
13244;SDS011;6689;53.400;12.486;2024-03-08T11:14:02;23.27;;;12.65;;
13244;SDS011;6689;53.400;12.486;2024-03-08T11:16:37;21.40;;;14.57;;
13244;SDS011;6689;53.400;12.486;2024-03-08T11:21:58;20.17;;;13.63;;
13244;SDS011;6689;53.400;12.486;2024-03-08T11:24:26;30.55;;;22.55;;
13244;SDS011;6689;53.400;12.486;2024-03-08T11:26:56;22.25;;;15.07;;
13244;SDS011;6689;53.400;12.486;2024-03-08T11:29:35;19.63;;;15.00;;
13244;SDS011;6689;53.400;12.486;2024-03-08T11:32:06;21.08;;;15.52;;
13244;SDS011;6689;53.400;12.486;2024-03-08T11:34:34;21.00;;;13.80;;
13244;SDS011;6689;53.400;12.486;2024-03-08T11:37:05;19.48;;;14.00;;
13244;SDS011;6689;53.400;12.486;2024-03-08T11:39:38;19.40;;;12.18;;
13244;SDS011;6689;53.400;12.486;2024-03-08T11:42:06;20.52;;;12.43;;
13244;SDS011;6689;53.400;12.486;2024-03-08T11:44:33;24.58;;;15.18;;
13244;SDS011;6689;53.400;12.486;2024-03-08T11:47:01;18.48;;;12.13;;
13244;SDS011;6689;53.400;12.486;2024-03-08T11:49:32;22.98;;;12.93;;
13244;SDS011;6689;53.400;12.486;2024-03-08T11:51:59;22.63;;;13.60;;
13244;SDS011;6689;53.400;12.486;2024-03-08T11:54:29;23.05;;;12.02;;
13244;SDS011;6689;53.400;12.486;2024-03-08T11:56:57;15.15;;;10.63;;
13244;SDS011;6689;53.400;12.486;2024-03-08T11:59:27;17.85;;;13.25;;
13244;SDS011;6689;53.400;12.486;2024-03-08T12:01:59;18.75;;;12.77;;
13244;SDS011;6689;53.400;12.486;2024-03-08T12:04:28;18.60;;;12.90;;
13244;SDS011;6689;53.400;12.486;2024-03-08T12:06:56;20.40;;;14.30;;
13244;SDS011;6689;53.400;12.486;2024-03-08T12:09:28;17.52;;;12.35;;
13244;SDS011;6689;53.400;12.486;2024-03-08T12:11:56;19.35;;;13.70;;
13244;SDS011;6689;53.400;12.486;2024-03-08T12:14:25;17.20;;;11.82;;
13244;SDS011;6689;53.400;12.486;2024-03-08T12:16:53;17.52;;;12.20;;
13244;SDS011;6689;53.400;12.486;2024-03-08T12:19:20;20.00;;;13.15;;
13244;SDS011;6689;53.400;12.486;2024-03-08T12:21:47;16.42;;;11.63;;
13244;SDS011;6689;53.400;12.486;2024-03-08T12:24:17;18.02;;;12.88;;
13244;SDS011;6689;53.400;12.486;2024-03-08T12:26:46;18.23;;;11.77;;
13244;SDS011;6689;53.400;12.486;2024-03-08T12:29:15;18.55;;;12.18;;
13244;SDS011;6689;53.400;12.486;2024-03-08T12:31:45;16.38;;;11.45;;
13244;SDS011;6689;53.400;12.486;2024-03-08T12:34:13;15.07;;;11.55;;
13244;SDS011;6689;53.400;12.486;2024-03-08T12:36:45;19.02;;;12.25;;
13244;SDS011;6689;53.400;12.486;2024-03-08T12:39:17;14.27;;;11.45;;
13244;SDS011;6689;53.400;12.486;2024-03-08T12:41:52;15.23;;;11.45;;
13244;SDS011;6689;53.400;12.486;2024-03-08T12:44:20;16.80;;;11.43;;
13244;SDS011;6689;53.400;12.486;2024-03-08T12:46:48;17.42;;;12.13;;
13244;SDS011;6689;53.400;12.486;2024-03-08T12:49:16;17.85;;;12.32;;
13244;SDS011;6689;53.400;12.486;2024-03-08T12:51:44;17.33;;;11.75;;
13244;SDS011;6689;53.400;12.486;2024-03-08T12:54:11;18.08;;;12.30;;
13244;SDS011;6689;53.400;12.486;2024-03-08T12:56:38;16.90;;;11.98;;
13244;SDS011;6689;53.400;12.486;2024-03-08T12:59:07;14.75;;;10.70;;
13244;SDS011;6689;53.400;12.486;2024-03-08T13:01:35;16.10;;;10.82;;
13244;SDS011;6689;53.400;12.486;2024-03-08T13:04:03;16.92;;;10.90;;
13244;SDS011;6689;53.400;12.486;2024-03-08T13:06:32;19.60;;;12.50;;
13244;SDS011;6689;53.400;12.486;2024-03-08T13:08:59;17.33;;;11.45;;
13244;SDS011;6689;53.400;12.486;2024-03-08T13:11:30;22.05;;;15.32;;
13244;SDS011;6689;53.400;12.486;2024-03-08T13:14:01;32.20;;;19.90;;
13244;SDS011;6689;53.400;12.486;2024-03-08T13:16:32;62.67;;;37.40;;
13244;SDS011;6689;53.400;12.486;2024-03-08T13:19:00;81.32;;;46.13;;
13244;SDS011;6689;53.400;12.486;2024-03-08T13:21:27;30.40;;;17.83;;
13244;SDS011;6689;53.400;12.486;2024-03-08T13:23:57;17.50;;;12.05;;
13244;SDS011;6689;53.400;12.486;2024-03-08T13:26:26;13.25;;;9.35;;
13244;SDS011;6689;53.400;12.486;2024-03-08T13:28:57;29.38;;;16.25;;
13244;SDS011;6689;53.400;12.486;2024-03-08T13:31:25;19.00;;;13.63;;
13244;SDS011;6689;53.400;12.486;2024-03-08T13:33:54;15.80;;;11.85;;
13244;SDS011;6689;53.400;12.486;2024-03-08T13:36:23;21.75;;;13.30;;
13244;SDS011;6689;53.400;12.486;2024-03-08T13:38:54;14.60;;;11.25;;
13244;SDS011;6689;53.400;12.486;2024-03-08T13:41:24;22.02;;;15.55;;
13244;SDS011;6689;53.400;12.486;2024-03-08T13:43:51;18.50;;;11.18;;
13244;SDS011;6689;53.400;12.486;2024-03-08T13:46:20;17.48;;;11.55;;
13244;SDS011;6689;53.400;12.486;2024-03-08T13:48:49;20.77;;;14.60;;
13244;SDS011;6689;53.400;12.486;2024-03-08T13:51:20;21.10;;;13.35;;
13244;SDS011;6689;53.400;12.486;2024-03-08T13:53:50;19.13;;;10.68;;
13244;SDS011;6689;53.400;12.486;2024-03-08T13:56:17;15.70;;;12.02;;
13244;SDS011;6689;53.400;12.486;2024-03-08T13:58:45;16.65;;;11.55;;
13244;SDS011;6689;53.400;12.486;2024-03-08T14:01:12;13.82;;;10.07;;
13244;SDS011;6689;53.400;12.486;2024-03-08T14:03:39;16.65;;;11.57;;
13244;SDS011;6689;53.400;12.486;2024-03-08T14:06:07;18.48;;;13.63;;
13244;SDS011;6689;53.400;12.486;2024-03-08T14:08:36;18.48;;;12.18;;
13244;SDS011;6689;53.400;12.486;2024-03-08T14:11:04;18.60;;;13.93;;
13244;SDS011;6689;53.400;12.486;2024-03-08T14:13:40;19.77;;;14.10;;
13244;SDS011;6689;53.400;12.486;2024-03-08T14:16:09;18.10;;;13.38;;
13244;SDS011;6689;53.400;12.486;2024-03-08T14:18:37;17.90;;;13.27;;
13244;SDS011;6689;53.400;12.486;2024-03-08T14:21:05;18.55;;;12.95;;
13244;SDS011;6689;53.400;12.486;2024-03-08T14:23:33;19.30;;;13.85;;
13244;SDS011;6689;53.400;12.486;2024-03-08T14:26:02;17.13;;;12.20;;
13244;SDS011;6689;53.400;12.486;2024-03-08T14:28:32;21.50;;;14.50;;
13244;SDS011;6689;53.400;12.486;2024-03-08T14:30:59;18.83;;;14.48;;
13244;SDS011;6689;53.400;12.486;2024-03-08T14:33:28;18.20;;;13.55;;
13244;SDS011;6689;53.400;12.486;2024-03-08T14:35:56;20.17;;;12.63;;
13244;SDS011;6689;53.400;12.486;2024-03-08T14:38:24;19.55;;;13.02;;